createdAt,value
2018-10-05T00:02:05.186Z,13.60
2018-10-05T00:04:34.170Z,13.60
2018-10-05T00:09:41.107Z,13.50
2018-10-05T00:12:09.928Z,13.60
2018-10-05T00:14:38.778Z,13.60
2018-10-05T00:17:08.997Z,13.60
2018-10-05T00:19:38.450Z,13.50
2018-10-05T00:22:07.883Z,13.60
2018-10-05T00:24:37.298Z,13.50
2018-10-05T00:27:06.177Z,13.50
2018-10-05T00:29:36.119Z,13.60
2018-10-05T00:32:07.650Z,13.60
2018-10-05T00:37:14.783Z,13.50
2018-10-05T00:39:44.670Z,13.50
2018-10-05T00:42:13.861Z,13.50
2018-10-05T00:44:43.287Z,13.50
2018-10-05T00:47:12.257Z,13.50
2018-10-05T00:49:41.170Z,13.50
2018-10-05T00:52:11.174Z,13.50
2018-10-05T00:54:40.707Z,13.50
2018-10-05T00:57:09.902Z,13.60
2018-10-05T00:59:40.276Z,13.60
2018-10-05T01:02:10.030Z,13.60
2018-10-05T01:04:39.253Z,13.60
2018-10-05T01:07:08.666Z,13.60
2018-10-05T01:09:38.789Z,13.60
2018-10-05T01:12:08.738Z,13.60
2018-10-05T01:14:38.014Z,13.60
2018-10-05T01:17:10.490Z,13.60
2018-10-05T01:19:41.837Z,13.60
2018-10-05T01:22:10.924Z,13.60
2018-10-05T01:24:40.189Z,13.60
2018-10-05T01:27:10.447Z,13.60
2018-10-05T01:29:39.437Z,13.60
2018-10-05T01:32:10.007Z,13.60
2018-10-05T01:34:39.618Z,13.60
2018-10-05T01:37:10.954Z,13.60
2018-10-05T01:39:42.334Z,13.60
2018-10-05T01:42:11.322Z,13.60
2018-10-05T01:44:40.550Z,13.60
2018-10-05T01:49:53.265Z,13.60
2018-10-05T01:52:25.411Z,13.70
2018-10-05T01:54:56.497Z,13.70
2018-10-05T01:57:27.163Z,13.70
2018-10-05T02:00:02.714Z,13.70
2018-10-05T02:02:31.790Z,13.70
2018-10-05T02:05:01.055Z,13.70
2018-10-05T02:07:30.848Z,13.70
2018-10-05T02:10:01.162Z,13.70
2018-10-05T02:12:30.061Z,13.70
2018-10-05T02:14:59.399Z,13.70
2018-10-05T02:17:29.587Z,13.70
2018-10-05T02:19:58.506Z,13.70
2018-10-05T02:22:27.582Z,13.70
2018-10-05T02:24:58.044Z,13.70
2018-10-05T02:27:27.403Z,13.70
2018-10-05T02:29:59.726Z,13.70
2018-10-05T02:32:30.747Z,13.70
2018-10-05T02:35:00.046Z,13.70
2018-10-05T02:37:29.048Z,13.70
2018-10-05T02:42:37.028Z,13.70
2018-10-05T02:45:11.273Z,13.70
2018-10-05T02:47:41.436Z,13.70
2018-10-05T02:50:17.709Z,13.70
2018-10-05T02:52:47.054Z,13.60
2018-10-05T02:55:18.763Z,13.60
2018-10-05T02:57:47.759Z,13.60
2018-10-05T03:00:27.646Z,13.60
2018-10-05T03:02:58.518Z,13.60
2018-10-05T03:05:27.586Z,13.60
2018-10-05T03:07:56.920Z,13.60
2018-10-05T03:10:26.937Z,13.60
2018-10-05T03:15:36.146Z,13.60
2018-10-05T03:18:05.112Z,13.60
2018-10-05T03:20:33.818Z,13.60
2018-10-05T03:23:04.720Z,13.60
2018-10-05T03:25:33.939Z,13.50
2018-10-05T03:28:03.740Z,13.50
2018-10-05T03:30:33.062Z,13.50
2018-10-05T03:33:02.853Z,13.50
2018-10-05T03:35:33.155Z,13.50
2018-10-05T03:38:03.334Z,13.50
2018-10-05T03:40:33.264Z,13.50
2018-10-05T03:43:01.991Z,13.50
2018-10-05T03:48:13.299Z,13.50
2018-10-05T03:50:42.579Z,13.50
2018-10-05T03:53:12.144Z,13.50
2018-10-05T03:55:42.199Z,13.50
2018-10-05T03:58:12.242Z,13.50
2018-10-05T04:00:42.610Z,13.50
2018-10-05T04:03:11.998Z,13.50
2018-10-05T04:05:41.266Z,13.60
2018-10-05T04:08:11.740Z,13.60
2018-10-05T04:13:20.262Z,13.60
2018-10-05T04:15:49.603Z,13.50
2018-10-05T04:18:18.487Z,13.50
2018-10-05T04:20:47.529Z,13.40
2018-10-05T04:23:16.924Z,13.40
2018-10-05T04:25:45.792Z,13.40
2018-10-05T04:28:15.951Z,13.40
2018-10-05T04:30:44.972Z,13.40
2018-10-05T04:33:14.150Z,13.40
2018-10-05T04:35:44.319Z,13.40
2018-10-05T04:38:13.319Z,13.40
2018-10-05T04:40:42.357Z,13.40
2018-10-05T04:45:49.400Z,13.50
2018-10-05T04:48:18.626Z,13.50
2018-10-05T04:50:47.358Z,13.50
2018-10-05T04:53:17.074Z,13.50
2018-10-05T04:55:46.099Z,13.50
2018-10-05T04:58:15.057Z,13.40
2018-10-05T05:00:44.099Z,13.50
2018-10-05T05:03:13.487Z,13.40
2018-10-05T05:05:42.270Z,13.40
2018-10-05T05:08:11.894Z,13.40
2018-10-05T05:10:40.875Z,13.50
2018-10-05T05:13:10.040Z,13.40
2018-10-05T05:15:38.962Z,13.50
2018-10-05T05:18:08.774Z,13.50
2018-10-05T05:20:37.966Z,13.50
2018-10-05T05:23:06.819Z,13.50
2018-10-05T05:25:36.798Z,13.50
2018-10-05T05:28:05.590Z,13.50
2018-10-05T05:30:34.449Z,13.50
2018-10-05T05:33:03.758Z,13.50
2018-10-05T05:35:32.843Z,13.60
2018-10-05T05:38:02.886Z,13.60
2018-10-05T05:40:32.082Z,13.60
2018-10-05T05:43:01.811Z,13.60
2018-10-05T05:45:30.846Z,13.60
2018-10-05T05:48:00.355Z,13.60
2018-10-05T05:50:29.302Z,13.60
2018-10-05T05:52:58.332Z,13.60
2018-10-05T05:55:27.408Z,13.60
2018-10-05T05:57:56.083Z,13.70
2018-10-05T06:00:56.952Z,13.70
2018-10-05T06:03:25.970Z,13.70
2018-10-05T06:05:54.952Z,13.70
2018-10-05T06:08:24.666Z,13.70
2018-10-05T06:10:54.005Z,13.70
2018-10-05T06:13:23.337Z,13.70
2018-10-05T06:15:52.331Z,13.70
2018-10-05T06:18:21.583Z,13.70
2018-10-05T06:20:50.500Z,13.80
2018-10-05T06:23:19.804Z,13.80
2018-10-05T06:25:48.994Z,13.80
2018-10-05T06:28:17.949Z,13.90
2018-10-05T06:30:47.032Z,13.90
2018-10-05T06:33:16.117Z,14.00
2018-10-05T06:35:44.941Z,14.00
2018-10-05T06:38:13.945Z,14.00
2018-10-05T06:40:43.023Z,14.10
2018-10-05T06:43:12.125Z,14.10
2018-10-05T06:45:41.494Z,14.10
2018-10-05T06:48:11.339Z,14.10
2018-10-05T06:50:40.377Z,14.30
2018-10-05T06:53:09.742Z,14.30
2018-10-05T06:55:38.614Z,14.30
2018-10-05T06:58:07.703Z,14.30
2018-10-05T07:00:36.968Z,14.20
2018-10-05T07:03:06.190Z,14.20
2018-10-05T07:05:35.851Z,14.20
2018-10-05T07:08:05.197Z,14.10
2018-10-05T07:10:34.179Z,14.10
2018-10-05T07:13:04.366Z,14.20
2018-10-05T07:15:33.455Z,14.20
2018-10-05T07:18:02.658Z,14.30
2018-10-05T07:20:35.110Z,14.30
2018-10-05T07:23:04.402Z,14.30
2018-10-05T07:25:35.238Z,14.30
2018-10-05T07:28:04.682Z,14.30
2018-10-05T07:30:33.540Z,14.40
2018-10-05T07:33:03.193Z,14.40
2018-10-05T07:35:32.595Z,14.40
2018-10-05T07:38:01.477Z,14.50
2018-10-05T07:40:30.455Z,14.50
2018-10-05T07:42:59.544Z,14.50
2018-10-05T07:45:28.727Z,14.60
2018-10-05T07:47:58.717Z,14.60
2018-10-05T07:50:29.165Z,14.60
2018-10-05T07:52:57.854Z,14.60
2018-10-05T07:55:27.203Z,14.50
2018-10-05T07:57:56.053Z,14.70
2018-10-05T08:00:24.764Z,14.70
2018-10-05T08:02:53.534Z,14.70
2018-10-05T08:05:24.314Z,14.60
2018-10-05T08:07:53.921Z,14.60
2018-10-05T08:10:22.906Z,14.70
2018-10-05T08:12:52.467Z,14.70
2018-10-05T08:15:21.214Z,14.90
2018-10-05T08:17:49.994Z,14.80
2018-10-05T08:20:19.060Z,15.00
2018-10-05T08:22:47.765Z,15.00
2018-10-05T08:25:16.666Z,15.00
2018-10-05T08:27:45.658Z,14.90
2018-10-05T08:30:14.557Z,14.80
2018-10-05T08:32:43.250Z,14.80
2018-10-05T08:35:12.348Z,14.70
2018-10-05T08:37:41.406Z,14.80
2018-10-05T08:40:10.738Z,14.60
2018-10-05T08:42:40.431Z,14.60
2018-10-05T08:45:09.346Z,14.50
2018-10-05T08:47:38.179Z,14.50
2018-10-05T08:50:07.737Z,14.50
2018-10-05T08:55:15.478Z,14.50
2018-10-05T08:57:44.929Z,14.40
2018-10-05T09:00:13.795Z,14.40
2018-10-05T09:02:44.011Z,14.40
2018-10-05T09:05:14.202Z,14.30
2018-10-05T09:07:43.034Z,14.20
2018-10-05T09:10:13.448Z,14.10
2018-10-05T09:12:42.535Z,14.00
2018-10-05T09:15:41.853Z,14.00
2018-10-05T09:18:12.011Z,14.00
2018-10-05T09:20:40.990Z,14.10
2018-10-05T09:23:10.270Z,14.10
2018-10-05T09:25:39.446Z,14.20
2018-10-05T09:28:08.359Z,14.30
2018-10-05T09:30:38.251Z,14.40
2018-10-05T09:35:45.179Z,14.50
2018-10-05T09:38:13.890Z,14.50
2018-10-05T09:40:42.766Z,14.50
2018-10-05T09:43:12.696Z,14.50
2018-10-05T09:45:41.526Z,14.50
2018-10-05T09:48:10.619Z,14.50
2018-10-05T09:50:39.718Z,14.50
2018-10-05T09:53:08.646Z,14.50
2018-10-05T09:55:38.139Z,14.40
2018-10-05T09:58:08.174Z,14.40
2018-10-05T10:00:42.572Z,14.30
2018-10-05T10:03:17.655Z,14.40
2018-10-05T10:05:46.710Z,14.50
2018-10-05T10:08:15.700Z,14.40
2018-10-05T10:10:44.702Z,14.30
2018-10-05T10:13:14.091Z,14.60
2018-10-05T10:15:44.511Z,14.60
2018-10-05T10:18:13.577Z,14.70
2018-10-05T10:20:42.502Z,14.80
2018-10-05T10:23:11.266Z,14.90
2018-10-05T10:25:40.137Z,14.90
2018-10-05T10:28:09.148Z,15.00
2018-10-05T10:30:37.834Z,15.00
2018-10-05T10:33:06.970Z,15.00
2018-10-05T10:35:36.658Z,15.00
2018-10-05T10:38:05.549Z,14.90
2018-10-05T10:40:34.606Z,14.80
2018-10-05T10:43:03.825Z,14.60
2018-10-05T10:45:32.704Z,14.60
2018-10-05T10:48:01.637Z,14.60
2018-10-05T10:50:31.943Z,14.50
2018-10-05T10:53:00.795Z,14.40
2018-10-05T10:55:29.929Z,14.40
2018-10-05T10:57:59.174Z,14.20
2018-10-05T11:00:28.162Z,14.20
2018-10-05T11:02:57.221Z,14.10
2018-10-05T11:05:26.154Z,14.30
2018-10-05T11:07:55.282Z,14.20
2018-10-05T11:10:24.444Z,14.40
2018-10-05T11:12:54.227Z,14.50
2018-10-05T11:15:23.366Z,14.50
2018-10-05T11:17:52.610Z,14.60
2018-10-05T11:20:21.591Z,14.60
2018-10-05T11:22:51.335Z,14.70
2018-10-05T11:25:20.257Z,14.70
2018-10-05T11:27:49.032Z,14.70
2018-10-05T11:30:17.879Z,14.70
2018-10-05T11:32:47.401Z,14.70
2018-10-05T11:35:17.290Z,14.60
2018-10-05T11:37:46.245Z,14.50
2018-10-05T11:40:15.231Z,14.50
2018-10-05T11:42:44.671Z,14.40
2018-10-05T11:45:13.486Z,14.30
2018-10-05T11:47:42.245Z,14.20
2018-10-05T11:50:12.378Z,14.10
2018-10-05T11:52:41.264Z,14.10
2018-10-05T11:55:10.122Z,14.10
2018-10-05T11:57:39.710Z,14.10
2018-10-05T12:00:09.098Z,14.00
2018-10-05T12:02:38.423Z,14.00
2018-10-05T12:05:07.483Z,14.00
2018-10-05T12:07:36.307Z,14.00
2018-10-05T12:10:05.312Z,14.00
2018-10-05T12:12:34.170Z,14.10
2018-10-05T12:15:03.295Z,14.10
2018-10-05T12:17:32.873Z,14.10
2018-10-05T12:20:01.999Z,13.90
2018-10-05T12:22:31.058Z,13.80
2018-10-05T12:25:00.146Z,13.80
2018-10-05T12:27:29.129Z,13.80
2018-10-05T12:29:58.119Z,13.70
2018-10-05T12:32:26.852Z,13.80
2018-10-05T12:34:55.903Z,13.80
2018-10-05T12:37:24.769Z,13.70
2018-10-05T12:39:53.577Z,13.80
2018-10-05T12:42:22.578Z,13.80
2018-10-05T12:44:51.978Z,13.70
2018-10-05T12:47:21.878Z,13.60
2018-10-05T12:49:51.718Z,13.60
2018-10-05T12:52:20.725Z,13.40
2018-10-05T12:54:49.623Z,13.40
2018-10-05T12:57:18.969Z,13.40
2018-10-05T12:59:47.954Z,13.40
2018-10-05T13:02:16.854Z,13.40
2018-10-05T13:04:45.907Z,13.00
2018-10-05T13:07:15.338Z,13.10
2018-10-05T13:09:44.717Z,13.00
2018-10-05T13:12:13.407Z,13.00
2018-10-05T13:14:43.906Z,13.00
2018-10-05T13:17:12.691Z,13.10
2018-10-05T13:19:42.207Z,13.10
2018-10-05T13:22:10.954Z,13.20
2018-10-05T13:24:40.127Z,13.10
2018-10-05T13:27:08.957Z,13.20
2018-10-05T13:29:37.694Z,13.20
2018-10-05T13:32:06.806Z,13.20
2018-10-05T13:34:35.826Z,13.20
2018-10-05T13:37:04.787Z,13.20
2018-10-05T13:39:33.602Z,13.20
2018-10-05T13:42:02.915Z,13.30
2018-10-05T13:44:32.853Z,13.40
2018-10-05T13:47:02.079Z,13.50
2018-10-05T13:49:31.033Z,13.50
2018-10-05T13:52:03.058Z,13.60
2018-10-05T13:54:32.441Z,13.70
2018-10-05T13:57:01.566Z,13.70
2018-10-05T13:59:30.212Z,13.70
2018-10-05T14:01:59.266Z,13.70
2018-10-05T14:04:28.223Z,13.80
2018-10-05T14:06:57.210Z,13.70
2018-10-05T14:09:26.299Z,13.60
2018-10-05T14:11:55.122Z,13.70
2018-10-05T14:14:23.957Z,13.70
2018-10-05T14:16:52.946Z,13.80
2018-10-05T14:19:21.873Z,13.50
2018-10-05T14:21:50.902Z,13.50
2018-10-05T14:24:19.808Z,13.50
2018-10-05T14:26:49.212Z,13.40
2018-10-05T14:29:18.135Z,13.40
2018-10-05T14:31:47.352Z,13.20
2018-10-05T14:34:16.303Z,13.20
2018-10-05T14:36:45.094Z,13.20
2018-10-05T14:39:13.978Z,13.10
2018-10-05T14:41:42.907Z,13.10
2018-10-05T14:44:11.713Z,13.20
2018-10-05T14:46:40.839Z,13.10
2018-10-05T14:49:09.707Z,13.10
2018-10-05T14:51:38.496Z,13.10
2018-10-05T14:54:07.688Z,13.10
2018-10-05T14:56:36.545Z,13.20
2018-10-05T14:59:06.521Z,13.10
2018-10-05T15:01:35.518Z,13.20
2018-10-05T15:04:08.794Z,13.20
2018-10-05T15:06:38.503Z,13.10
2018-10-05T15:09:07.681Z,13.10
2018-10-05T15:11:42.568Z,13.10
2018-10-05T15:16:50.065Z,13.00
2018-10-05T15:19:19.180Z,13.00
2018-10-05T15:24:41.021Z,13.00
2018-10-05T15:27:10.781Z,13.00
2018-10-05T15:29:40.616Z,13.00
2018-10-05T15:32:10.481Z,12.90
2018-10-05T15:34:41.164Z,12.80
2018-10-05T15:37:10.790Z,12.80
2018-10-05T15:39:41.294Z,12.80
2018-10-05T15:42:11.528Z,12.90
2018-10-05T15:44:40.974Z,12.80
2018-10-05T15:47:12.904Z,12.80
2018-10-05T15:49:42.323Z,12.80
2018-10-05T15:52:11.609Z,12.80
2018-10-05T15:54:41.394Z,12.80
2018-10-05T15:57:10.659Z,12.80
2018-10-05T15:59:44.059Z,12.70
2018-10-05T16:02:14.163Z,12.80
2018-10-05T16:04:43.529Z,12.80
2018-10-05T16:07:12.895Z,12.70
2018-10-05T16:09:41.989Z,12.70
2018-10-05T16:17:57.068Z,12.80
2018-10-05T16:20:25.960Z,12.70
2018-10-05T16:22:54.899Z,12.70
2018-10-05T16:25:24.152Z,12.70
2018-10-05T16:27:52.846Z,12.70
2018-10-05T16:30:21.563Z,12.70
2018-10-05T16:32:50.958Z,12.70
2018-10-05T16:35:19.746Z,12.70
2018-10-05T16:37:49.240Z,12.70
2018-10-05T16:40:18.530Z,12.70
2018-10-05T16:42:48.411Z,12.70
2018-10-05T16:45:18.146Z,12.70
2018-10-05T16:47:47.166Z,12.70
2018-10-05T16:50:16.099Z,12.70
2018-10-05T16:52:44.887Z,12.70
2018-10-05T16:55:13.904Z,12.60
2018-10-05T16:57:42.626Z,12.60
2018-10-05T17:00:11.594Z,12.60
2018-10-05T17:02:40.322Z,12.50
2018-10-05T17:05:09.177Z,12.60
2018-10-05T17:07:37.963Z,12.60
2018-10-05T17:10:06.806Z,12.60
2018-10-05T17:12:35.872Z,12.60
2018-10-05T17:15:04.870Z,12.60
2018-10-05T17:17:34.882Z,12.60
2018-10-05T17:20:03.674Z,12.70
2018-10-05T17:22:32.482Z,12.70
2018-10-05T17:25:01.559Z,12.70
2018-10-05T17:27:30.414Z,12.70
2018-10-05T17:29:59.378Z,12.70
2018-10-05T17:32:29.178Z,12.70
2018-10-05T17:34:58.177Z,12.70
2018-10-05T17:37:27.046Z,12.70
2018-10-05T17:39:56.065Z,12.70
2018-10-05T17:42:24.759Z,12.70
2018-10-05T17:44:53.696Z,12.70
2018-10-05T17:47:22.585Z,12.70
2018-10-05T17:49:51.434Z,12.70
2018-10-05T17:52:20.611Z,12.70
2018-10-05T17:54:49.419Z,12.70
2018-10-05T17:57:18.330Z,12.70
2018-10-05T17:59:47.245Z,12.70
2018-10-05T18:02:16.391Z,12.70
2018-10-05T18:04:46.062Z,12.70
2018-10-05T18:07:14.822Z,12.70
2018-10-05T18:09:46.654Z,12.60
2018-10-05T18:12:15.371Z,12.70
2018-10-05T18:14:44.464Z,12.70
2018-10-05T18:17:13.158Z,12.70
2018-10-05T18:19:42.150Z,12.70
2018-10-05T18:22:11.144Z,12.70
2018-10-05T18:24:39.884Z,12.60
2018-10-05T18:27:08.647Z,12.70
2018-10-05T18:29:37.678Z,12.70
2018-10-05T18:32:06.565Z,12.70
2018-10-05T18:34:35.312Z,12.70
2018-10-05T18:37:04.555Z,12.80
2018-10-05T18:39:33.438Z,12.80
2018-10-05T18:42:02.118Z,12.80
2018-10-05T18:44:30.872Z,12.70
2018-10-05T18:46:59.858Z,12.70
2018-10-05T18:49:28.889Z,12.70
2018-10-05T18:51:58.308Z,12.70
2018-10-05T18:54:27.415Z,12.70
2018-10-05T18:57:07.239Z,12.70
2018-10-05T18:59:35.872Z,12.70
2018-10-05T19:02:04.843Z,12.70
2018-10-05T19:04:33.890Z,12.70
2018-10-05T19:07:02.708Z,12.70
2018-10-05T19:09:31.706Z,12.70
2018-10-05T19:12:00.483Z,12.70
2018-10-05T19:17:05.613Z,12.70
2018-10-05T19:19:34.532Z,12.70
2018-10-05T19:22:03.530Z,12.70
2018-10-05T19:24:32.400Z,12.70
2018-10-05T19:27:01.366Z,12.70
2018-10-05T19:29:30.357Z,12.70
2018-10-05T19:32:00.960Z,12.70
2018-10-05T19:37:23.515Z,12.70
2018-10-05T19:39:52.319Z,12.70
2018-10-05T19:42:21.183Z,12.70
2018-10-05T19:44:50.067Z,12.70
2018-10-05T19:47:18.970Z,12.70
2018-10-05T19:49:47.820Z,12.70
2018-10-05T19:52:16.819Z,12.70
2018-10-05T19:54:45.765Z,12.70
2018-10-05T19:57:14.711Z,12.70
2018-10-05T19:59:43.883Z,12.70
2018-10-05T20:02:12.764Z,12.70
2018-10-05T20:04:41.835Z,12.70
2018-10-05T20:07:10.818Z,12.70
2018-10-05T20:09:39.711Z,12.70
2018-10-05T20:12:08.466Z,12.70
2018-10-05T20:14:37.730Z,12.70
2018-10-05T20:17:06.754Z,12.80
2018-10-05T20:19:35.544Z,12.80
2018-10-05T20:22:07.213Z,12.80
2018-10-05T20:24:35.995Z,12.80
2018-10-05T20:27:05.384Z,12.80
2018-10-05T20:29:34.263Z,12.80
2018-10-05T20:32:03.509Z,12.90
2018-10-05T20:34:32.318Z,12.90
2018-10-05T20:37:01.421Z,12.90
2018-10-05T20:39:30.179Z,12.90
2018-10-05T20:41:59.307Z,12.90
2018-10-05T20:44:28.393Z,12.90
2018-10-05T20:46:57.308Z,12.90
2018-10-05T20:49:26.138Z,12.90
2018-10-05T20:51:55.123Z,13.00
2018-10-05T20:54:24.163Z,13.00
2018-10-05T20:56:53.093Z,13.00
2018-10-05T20:59:22.082Z,13.00
2018-10-05T21:01:50.898Z,13.00
2018-10-05T21:04:19.798Z,13.00
2018-10-05T21:06:49.048Z,13.00
2018-10-05T21:09:17.889Z,13.00
2018-10-05T21:11:46.826Z,13.00
2018-10-05T21:14:15.731Z,13.00
2018-10-05T21:16:44.620Z,13.00
2018-10-05T21:19:13.426Z,13.00
2018-10-05T21:21:42.568Z,13.00
2018-10-05T21:24:11.387Z,13.00
2018-10-05T21:26:40.150Z,13.00
2018-10-05T21:29:09.455Z,13.00
2018-10-05T21:31:38.387Z,13.00
2018-10-05T21:34:07.930Z,13.00
2018-10-05T21:36:36.963Z,13.10
2018-10-05T21:39:09.435Z,13.10
2018-10-05T21:41:38.652Z,13.10
2018-10-05T21:44:08.608Z,13.10
2018-10-05T21:46:37.642Z,13.10
2018-10-05T21:49:07.099Z,13.10
2018-10-05T21:51:36.021Z,13.10
2018-10-05T21:54:04.975Z,13.00
2018-10-05T21:56:34.341Z,13.10
2018-10-05T21:59:03.179Z,13.10
2018-10-05T22:01:31.967Z,13.10
2018-10-05T22:04:01.246Z,13.10
2018-10-05T22:06:30.314Z,13.20
2018-10-05T22:08:59.230Z,13.20
2018-10-05T22:11:28.296Z,13.20
2018-10-05T22:13:57.340Z,13.10
2018-10-05T22:16:26.167Z,13.10
2018-10-05T22:18:55.039Z,13.10
2018-10-05T22:21:23.954Z,13.00
2018-10-05T22:23:52.825Z,13.00
2018-10-05T22:26:21.783Z,13.00
2018-10-05T22:28:50.682Z,13.00
2018-10-05T22:31:19.484Z,13.00
2018-10-05T22:33:48.429Z,12.90
2018-10-05T22:36:17.200Z,12.80
2018-10-05T22:38:46.187Z,12.80
2018-10-05T22:41:15.586Z,12.70
2018-10-05T22:43:44.370Z,12.60
2018-10-05T22:46:13.192Z,12.50
2018-10-05T22:48:42.033Z,12.40
2018-10-05T22:51:11.070Z,12.30
2018-10-05T22:53:40.021Z,12.20
2018-10-05T22:56:09.152Z,12.20
2018-10-05T22:58:37.946Z,12.00
2018-10-05T23:01:07.037Z,12.00
2018-10-05T23:03:36.300Z,12.00
2018-10-05T23:06:05.103Z,11.90
2018-10-05T23:08:33.899Z,11.80
2018-10-05T23:11:03.008Z,11.80
2018-10-05T23:13:31.708Z,11.80
2018-10-05T23:16:00.499Z,11.70
2018-10-05T23:18:29.390Z,11.70
2018-10-05T23:20:58.170Z,11.70
2018-10-05T23:23:27.001Z,11.60
2018-10-05T23:25:55.794Z,11.60
2018-10-05T23:28:24.591Z,11.50
2018-10-05T23:30:53.321Z,11.50
2018-10-05T23:33:22.250Z,11.40
2018-10-05T23:35:51.060Z,11.40
2018-10-05T23:38:19.694Z,11.40
2018-10-05T23:40:48.467Z,11.40
2018-10-05T23:43:17.334Z,11.40
2018-10-05T23:45:46.189Z,11.40
2018-10-05T23:48:15.667Z,11.40
2018-10-05T23:50:44.406Z,11.40
2018-10-05T23:53:13.329Z,11.40
2018-10-05T23:55:42.328Z,11.30
2018-10-05T23:58:17.662Z,11.20
